Terminal Aerodrome Forecast
Issued by NWS Huntsville, AL

Home | Current Version | Previous Version | Text Only | Print | Product List | Glossary On
Versions: 1 2 3 4 5 6 7 8 9 10 11 12 13 14 15 16 17 18 19 20 21
000
FTUS44 KHUN 280520
TAFHSV
TAF
KHSV 280520Z 2806/2906 07004KT P6SM FEW150
     FM281000 VRB02KT 5SM BR FEW250
     FM281300 11004KT P6SM SCT040
     FM282000 08006KT P6SM VCTS SCT050CB
     FM290000 06004KT P6SM FEW200=

USA.gov is the U.S. government's official web portal to all federal, state and local government web resources and services.